Terminal Aerodrome Forecast
Issued by NWS

Home | Current Version | Previous Version | Text Only | Print | Product List | Glossary On
Versions: 1 2 3 4 5 6 7 8 9 10 11 12 13 14 15 16 17 18 19 20 21 22 23 24 25 26 27 28 29 30 31 32 33 34 35 36 37 38 39 40 41 42 43 44 45 46 47 48 49 50
000
FTUS44 KHGX 041825 AAA
TAFLBX
TAF AMD
KLBX 041825Z 0418/0518 01016KT P6SM -RA VCTS BKN008 OVC016CB
     FM041900 01009KT 6SM BR VCSH OVC009
     FM050300 02010KT 4SM -RA BR VCTS OVC007CB
     FM050600 05011KT 5SM -TSRA BR OVC005CB=

USA.gov is the U.S. government's official web portal to all federal, state and local government web resources and services.